Terminal Aerodrome Forecast
Issued by NWS Austin/San Antonio, TX

Home | Current Version | Previous Version | Text Only | Print | Product List | Glossary On
Versions: 1 2 3 4 5 6 7 8 9 10 11 12 13 14 15 16 17 18 19 20 21
000
FTUS44 KEWX 171100 AAA
TAFAUS
TAF AMD
KAUS 171103Z 1711/1812 11007KT 5SM BR BKN015
     FM171300 15007KT 5SM -DZ BR OVC009
     FM171700 14007KT P6SM BKN017
     FM180300 05007KT 4SM -DZ BR OVC009=

USA.gov is the U.S. government's official web portal to all federal, state and local government web resources and services.